Time;durP1;ratioP1;P1;durP2;ratioP2;P2;SDS_P1;SDS_P2;PMS_P1;PMS_P2;Temp;Humidity;BMP_temperature;BMP_pressure;BME280_temperature;BME280_humidity;BME280_pressure;Samples;Min_cycle;Max_cycle;Signal;HPM_P1;HPM_P2
2023/12/08 00:01:36;;;;;;;90.03;43.00;;;;;;;;;;5112662;28;20052;-73
2023/12/08 00:04:02;;;;;;;97.88;44.85;;;;;;;;;;5116383;28;20474;-75
2023/12/08 00:06:29;;;;;;;88.57;43.55;;;;;;;;;;5113376;28;20073;-75
2023/12/08 00:08:55;;;;;;;90.68;44.15;;;;;;;;;;5112471;28;20110;-74
2023/12/08 00:11:21;;;;;;;93.50;45.10;;;;;;;;;;5112751;28;20051;-74
2023/12/08 00:13:47;;;;;;;95.80;44.72;;;;;;;;;;5115789;28;20479;-74
2023/12/08 00:16:13;;;;;;;95.20;45.67;;;;;;;;;;5115971;28;20050;-74
2023/12/08 00:18:39;;;;;;;90.43;44.13;;;;;;;;;;5115175;28;20478;-74
2023/12/08 00:21:06;;;;;;;87.45;44.05;;;;;;;;;;5115465;28;20093;-74
2023/12/08 00:23:32;;;;;;;87.38;43.05;;;;;;;;;;5111849;28;20440;-74
2023/12/08 00:25:58;;;;;;;89.32;44.90;;;;;;;;;;5112515;28;20023;-74
2023/12/08 00:28:24;;;;;;;91.30;45.45;;;;;;;;;;5112397;28;20024;-73
2023/12/08 00:30:50;;;;;;;92.30;44.72;;;;;;;;;;5112387;28;20045;-72
2023/12/08 00:33:16;;;;;;;89.55;45.25;;;;;;;;;;5112527;28;20053;-74
2023/12/08 00:35:42;;;;;;;91.70;44.10;;;;;;;;;;5121485;28;20020;-74
2023/12/08 00:38:09;;;;;;;88.60;44.03;;;;;;;;;;5113806;28;20129;-74
2023/12/08 00:40:36;;;;;;;90.10;44.15;;;;;;;;;;5112514;28;20054;-75
2023/12/08 00:43:02;;;;;;;92.80;45.42;;;;;;;;;;5114921;28;20035;-74
2023/12/08 00:45:28;;;;;;;93.43;45.00;;;;;;;;;;5112760;28;20016;-74
2023/12/08 00:47:54;;;;;;;89.95;43.38;;;;;;;;;;5113991;28;20019;-74
2023/12/08 00:50:20;;;;;;;87.00;44.05;;;;;;;;;;5115206;28;20340;-74
2023/12/08 00:52:46;;;;;;;88.13;44.60;;;;;;;;;;5115933;28;20026;-74
2023/12/08 00:55:12;;;;;;;90.03;45.13;;;;;;;;;;5118155;28;20020;-74
2023/12/08 00:57:39;;;;;;;92.30;45.22;;;;;;;;;;5112292;28;20041;-73
2023/12/08 01:00:05;;;;;;;88.53;44.78;;;;;;;;;;5111884;28;20035;-73
2023/12/08 01:02:31;;;;;;;84.20;44.03;;;;;;;;;;5105640;28;20036;-73
2023/12/08 01:04:57;;;;;;;94.07;44.88;;;;;;;;;;5103567;28;20525;-74
2023/12/08 01:07:23;;;;;;;94.07;44.83;;;;;;;;;;5093471;28;20081;-73
2023/12/08 01:09:49;;;;;;;96.50;45.80;;;;;;;;;;5091551;28;20077;-72
2023/12/08 01:12:15;;;;;;;93.75;44.42;;;;;;;;;;5091808;28;20421;-74
2023/12/08 01:14:41;;;;;;;89.10;43.35;;;;;;;;;;5092192;28;20032;-74
2023/12/08 01:17:07;;;;;;;91.68;46.45;;;;;;;;;;5093550;28;20032;-74
2023/12/08 01:19:33;;;;;;;92.55;44.72;;;;;;;;;;5091577;28;20029;-74
2023/12/08 01:21:59;;;;;;;92.38;46.15;;;;;;;;;;5095124;28;20028;-74
2023/12/08 01:24:25;;;;;;;89.05;44.10;;;;;;;;;;5095200;28;20024;-73
2023/12/08 01:26:51;;;;;;;91.90;45.45;;;;;;;;;;5095465;28;20028;-73
2023/12/08 01:29:17;;;;;;;99.38;45.63;;;;;;;;;;5095266;28;20025;-72
2023/12/08 01:31:42;;;;;;;94.85;46.35;;;;;;;;;;5094988;28;20475;-73
2023/12/08 01:34:08;;;;;;;88.22;43.92;;;;;;;;;;5095018;28;20064;-74
2023/12/08 01:36:34;;;;;;;87.68;44.53;;;;;;;;;;5099822;28;20024;-73
2023/12/08 01:39:00;;;;;;;96.10;44.92;;;;;;;;;;5095387;28;20497;-75
2023/12/08 01:41:26;;;;;;;81.97;42.47;;;;;;;;;;5096069;28;20024;-75
2023/12/08 01:43:52;;;;;;;88.15;42.60;;;;;;;;;;5094964;28;20020;-74
2023/12/08 01:46:19;;;;;;;92.15;42.22;;;;;;;;;;5095109;28;20020;-72
2023/12/08 01:48:46;;;;;;;83.75;42.42;;;;;;;;;;5094544;28;20020;-74
2023/12/08 01:51:12;;;;;;;79.15;41.22;;;;;;;;;;5094750;28;20020;-73
2023/12/08 01:53:39;;;;;;;88.95;43.13;;;;;;;;;;5095738;28;20028;-74
2023/12/08 01:56:06;;;;;;;86.53;41.58;;;;;;;;;;5096569;28;20028;-75
2023/12/08 01:58:32;;;;;;;82.68;42.17;;;;;;;;;;5095531;28;20039;-75
2023/12/08 02:00:59;;;;;;;88.90;42.53;;;;;;;;;;5095470;28;20028;-74
2023/12/08 02:03:25;;;;;;;91.40;42.22;;;;;;;;;;5094688;28;20032;-75
2023/12/08 02:05:51;;;;;;;78.28;41.15;;;;;;;;;;5095233;28;20025;-74
2023/12/08 02:08:18;;;;;;;77.30;39.75;;;;;;;;;;5095448;28;20130;-74
2023/12/08 02:10:44;;;;;;;83.70;42.65;;;;;;;;;;5095072;28;20509;-73
2023/12/08 02:13:16;;;;;;;82.10;43.38;;;;;;;;;;5094312;28;20062;-73
2023/12/08 02:15:42;;;;;;;77.53;40.70;;;;;;;;;;5094681;28;20020;-73
2023/12/08 02:18:08;;;;;;;81.85;41.42;;;;;;;;;;5094323;28;20105;-74
2023/12/08 02:20:34;;;;;;;82.15;40.60;;;;;;;;;;5095485;28;20028;-74
2023/12/08 02:23:04;;;;;;;79.80;39.97;;;;;;;;;;5092757;28;20027;-73
2023/12/08 02:25:30;;;;;;;79.53;40.90;;;;;;;;;;5094154;28;20070;-73
2023/12/08 02:27:56;;;;;;;80.95;41.35;;;;;;;;;;5094155;28;20024;-73
2023/12/08 02:30:22;;;;;;;78.88;40.67;;;;;;;;;;5094146;28;20020;-73
2023/12/08 02:32:54;;;;;;;86.60;42.60;;;;;;;;;;5094424;28;20028;-74
2023/12/08 02:35:21;;;;;;;84.63;41.42;;;;;;;;;;5096875;28;20105;-73
2023/12/08 02:37:48;;;;;;;79.45;41.03;;;;;;;;;;5103188;28;20119;-74
2023/12/08 02:40:14;;;;;;;82.97;40.65;;;;;;;;;;5098717;28;20044;-73
2023/12/08 02:42:40;;;;;;;82.75;41.88;;;;;;;;;;5096525;28;20035;-72
2023/12/08 02:45:06;;;;;;;79.85;41.80;;;;;;;;;;5095567;28;20039;-72
2023/12/08 02:47:32;;;;;;;80.40;40.83;;;;;;;;;;5094131;28;20024;-72
2023/12/08 02:49:58;;;;;;;77.72;40.20;;;;;;;;;;5093919;28;20025;-73
2023/12/08 02:52:24;;;;;;;79.57;41.03;;;;;;;;;;5094041;28;20046;-74
2023/12/08 02:54:50;;;;;;;84.70;43.33;;;;;;;;;;5094442;28;20391;-75
2023/12/08 02:57:16;;;;;;;78.68;40.03;;;;;;;;;;5094462;28;20052;-73
2023/12/08 02:59:42;;;;;;;83.15;40.85;;;;;;;;;;5094272;28;20403;-73
2023/12/08 03:02:08;;;;;;;72.47;37.13;;;;;;;;;;5093558;28;20024;-73
2023/12/08 03:04:35;;;;;;;74.30;39.25;;;;;;;;;;5093396;28;20037;-72
2023/12/08 03:07:01;;;;;;;70.85;38.17;;;;;;;;;;5093299;28;20090;-76
2023/12/08 03:09:27;;;;;;;75.78;39.63;;;;;;;;;;5093406;28;20024;-75
2023/12/08 03:11:53;;;;;;;71.68;37.20;;;;;;;;;;5093271;28;20020;-73
2023/12/08 03:14:19;;;;;;;76.10;39.33;;;;;;;;;;5096832;28;20560;-73
2023/12/08 03:16:46;;;;;;;74.18;39.40;;;;;;;;;;5093955;28;20031;-73
2023/12/08 03:19:12;;;;;;;84.70;37.10;;;;;;;;;;5092945;28;20112;-74
2023/12/08 03:21:38;;;;;;;77.75;39.10;;;;;;;;;;5093093;28;20475;-74
2023/12/08 03:24:04;;;;;;;76.30;37.53;;;;;;;;;;5093268;28;20031;-73
2023/12/08 03:26:30;;;;;;;75.60;37.95;;;;;;;;;;5093044;28;20106;-73
2023/12/08 03:28:56;;;;;;;75.90;39.22;;;;;;;;;;5093258;28;20055;-74
2023/12/08 03:31:22;;;;;;;76.18;38.28;;;;;;;;;;5092715;28;20052;-74
2023/12/08 03:33:48;;;;;;;68.70;36.75;;;;;;;;;;5092726;28;20020;-72
2023/12/08 03:36:14;;;;;;;77.63;38.60;;;;;;;;;;5092867;28;20391;-73
2023/12/08 03:38:40;;;;;;;68.82;36.63;;;;;;;;;;5092598;28;20115;-72
2023/12/08 03:41:06;;;;;;;70.82;37.35;;;;;;;;;;5093040;28;20024;-74
2023/12/08 03:43:32;;;;;;;74.30;38.10;;;;;;;;;;5093313;28;20374;-74
2023/12/08 03:45:58;;;;;;;73.88;36.88;;;;;;;;;;5093150;28;20024;-74
2023/12/08 03:48:24;;;;;;;71.78;37.20;;;;;;;;;;5092334;28;20487;-74
2023/12/08 03:50:50;;;;;;;73.95;37.97;;;;;;;;;;5092486;28;20024;-74
2023/12/08 03:53:16;;;;;;;76.50;39.22;;;;;;;;;;5092894;28;20077;-74
2023/12/08 03:55:42;;;;;;;76.47;39.92;;;;;;;;;;5092804;28;20016;-74
2023/12/08 03:58:08;;;;;;;80.68;40.17;;;;;;;;;;5092570;28;20036;-73
2023/12/08 04:00:34;;;;;;;71.95;36.97;;;;;;;;;;5092391;28;20115;-74
2023/12/08 04:03:00;;;;;;;76.25;39.05;;;;;;;;;;5092318;28;20024;-74
2023/12/08 04:05:26;;;;;;;78.28;38.78;;;;;;;;;;5092249;28;20558;-74
2023/12/08 04:07:52;;;;;;;79.45;38.10;;;;;;;;;;5092028;28;20035;-73
2023/12/08 04:10:18;;;;;;;72.38;37.83;;;;;;;;;;5092845;28;20066;-74
2023/12/08 04:12:44;;;;;;;77.78;39.00;;;;;;;;;;5092526;28;20145;-76
2023/12/08 04:15:10;;;;;;;70.95;37.05;;;;;;;;;;5096215;28;20024;-74
2023/12/08 04:17:36;;;;;;;75.38;38.05;;;;;;;;;;5095321;28;20026;-73
2023/12/08 04:20:02;;;;;;;69.97;36.08;;;;;;;;;;5093701;28;20390;-72
2023/12/08 04:22:28;;;;;;;70.88;35.35;;;;;;;;;;5093963;28;20101;-73
2023/12/08 04:24:54;;;;;;;73.63;36.30;;;;;;;;;;5091658;28;20020;-73
2023/12/08 04:27:20;;;;;;;72.28;35.95;;;;;;;;;;5091811;28;20020;-73
2023/12/08 04:29:46;;;;;;;68.38;35.08;;;;;;;;;;5093690;28;20085;-73
2023/12/08 04:32:12;;;;;;;68.00;33.90;;;;;;;;;;5094933;28;20027;-73
2023/12/08 04:34:38;;;;;;;70.82;34.10;;;;;;;;;;5097954;28;20020;-73
2023/12/08 04:37:04;;;;;;;63.92;34.13;;;;;;;;;;5099947;28;20028;-74
2023/12/08 04:39:30;;;;;;;63.38;33.03;;;;;;;;;;5099686;28;20421;-72
2023/12/08 04:41:56;;;;;;;62.20;32.70;;;;;;;;;;5091573;28;20024;-72
2023/12/08 04:44:22;;;;;;;64.05;33.58;;;;;;;;;;5091636;28;20030;-72
2023/12/08 04:46:48;;;;;;;60.80;32.10;;;;;;;;;;5091874;28;20487;-72
2023/12/08 04:49:14;;;;;;;58.70;32.33;;;;;;;;;;5091366;28;20098;-72
2023/12/08 04:51:43;;;;;;;60.13;31.23;;;;;;;;;;5093090;28;20034;-76
2023/12/08 04:54:09;;;;;;;65.22;33.45;;;;;;;;;;5095214;28;20085;-75
2023/12/08 04:56:35;;;;;;;64.82;32.10;;;;;;;;;;5099976;28;20028;-75
2023/12/08 04:59:01;;;;;;;57.58;30.58;;;;;;;;;;5100716;28;20464;-76
2023/12/08 05:01:27;;;;;;;60.75;30.85;;;;;;;;;;5100526;28;20039;-75
2023/12/08 05:03:53;;;;;;;53.67;30.05;;;;;;;;;;5097881;28;20039;-74
2023/12/08 05:06:22;;;;;;;56.92;28.63;;;;;;;;;;5096201;28;20164;-73
2023/12/08 05:08:48;;;;;;;54.00;30.85;;;;;;;;;;5097155;28;20027;-72
2023/12/08 05:11:16;;;;;;;53.38;29.13;;;;;;;;;;5096514;28;20028;-76
2023/12/08 05:13:42;;;;;;;52.55;27.42;;;;;;;;;;5097117;28;20032;-76
2023/12/08 05:16:15;;;;;;;54.50;28.38;;;;;;;;;;5096093;28;20043;-75
2023/12/08 05:18:41;;;;;;;62.08;29.67;;;;;;;;;;5094097;28;20102;-74
2023/12/08 05:21:07;;;;;;;47.70;26.17;;;;;;;;;;5095290;28;20490;-73
2023/12/08 05:23:33;;;;;;;45.47;26.00;;;;;;;;;;5094999;28;20428;-73
2023/12/08 05:25:59;;;;;;;48.05;26.75;;;;;;;;;;5095394;28;20020;-73
2023/12/08 05:28:25;;;;;;;50.60;25.95;;;;;;;;;;5095416;28;20026;-75
2023/12/08 05:30:53;;;;;;;47.28;26.02;;;;;;;;;;5096722;28;20020;-76
2023/12/08 05:33:19;;;;;;;49.45;25.27;;;;;;;;;;5096490;28;20024;-72
2023/12/08 05:35:45;;;;;;;44.25;24.63;;;;;;;;;;5095371;28;20032;-74
2023/12/08 05:38:11;;;;;;;45.90;25.42;;;;;;;;;;5094884;28;20551;-74
2023/12/08 05:40:37;;;;;;;49.30;25.83;;;;;;;;;;5094889;28;20406;-74
2023/12/08 05:43:03;;;;;;;49.80;25.52;;;;;;;;;;5095023;28;20031;-74
2023/12/08 05:45:29;;;;;;;46.78;25.35;;;;;;;;;;5094609;28;20089;-74
2023/12/08 05:47:55;;;;;;;44.58;24.77;;;;;;;;;;5094112;28;20364;-73
2023/12/08 05:50:21;;;;;;;47.65;26.23;;;;;;;;;;5094475;28;20028;-73
2023/12/08 05:52:47;;;;;;;46.80;25.33;;;;;;;;;;5094313;28;20024;-75
2023/12/08 05:55:13;;;;;;;49.58;25.90;;;;;;;;;;5094807;28;20507;-74
2023/12/08 05:57:39;;;;;;;48.67;25.75;;;;;;;;;;5094330;28;20051;-74
2023/12/08 06:00:06;;;;;;;47.15;25.42;;;;;;;;;;5094726;28;20036;-74
2023/12/08 06:02:32;;;;;;;51.08;27.58;;;;;;;;;;5094472;28;20028;-74
2023/12/08 06:04:58;;;;;;;50.05;26.33;;;;;;;;;;5093728;28;20055;-73
2023/12/08 06:07:24;;;;;;;53.92;27.77;;;;;;;;;;5097157;28;20021;-74
2023/12/08 06:09:50;;;;;;;51.53;27.17;;;;;;;;;;5097112;28;20531;-77
2023/12/08 06:12:17;;;;;;;50.25;27.25;;;;;;;;;;5096209;28;20076;-74
2023/12/08 06:14:43;;;;;;;57.22;28.27;;;;;;;;;;5095558;28;20131;-76
2023/12/08 06:17:09;;;;;;;54.45;27.27;;;;;;;;;;5096176;28;20572;-74
2023/12/08 06:19:35;;;;;;;54.47;27.63;;;;;;;;;;5094072;28;20348;-75
2023/12/08 06:22:01;;;;;;;55.97;28.42;;;;;;;;;;5094449;28;20039;-73
2023/12/08 06:24:27;;;;;;;58.17;29.38;;;;;;;;;;5094834;28;20053;-73
2023/12/08 06:26:53;;;;;;;57.03;29.23;;;;;;;;;;5094443;28;20470;-76
2023/12/08 06:29:19;;;;;;;56.95;29.63;;;;;;;;;;5094465;28;20074;-74
2023/12/08 06:31:45;;;;;;;56.80;29.58;;;;;;;;;;5095880;28;20459;-73
2023/12/08 06:34:11;;;;;;;59.45;31.77;;;;;;;;;;5094329;28;20099;-75
2023/12/08 06:36:44;;;;;;;61.55;30.75;;;;;;;;;;5094119;28;20094;-74
2023/12/08 06:39:12;;;;;;;61.35;32.50;;;;;;;;;;5096839;28;20020;-77
2023/12/08 06:41:38;;;;;;;61.70;31.92;;;;;;;;;;5097779;28;20464;-75
2023/12/08 06:44:04;;;;;;;65.60;32.40;;;;;;;;;;5094266;28;20028;-76
2023/12/08 06:46:30;;;;;;;65.38;33.53;;;;;;;;;;5094760;28;20016;-75
2023/12/08 06:48:55;;;;;;;68.80;33.55;;;;;;;;;;5093480;28;20359;-72
2023/12/08 06:51:21;;;;;;;64.10;33.05;;;;;;;;;;5093699;28;20030;-75
2023/12/08 06:53:47;;;;;;;65.40;33.40;;;;;;;;;;5094288;28;20031;-74
2023/12/08 06:56:13;;;;;;;68.05;34.83;;;;;;;;;;5092279;28;20483;-74
2023/12/08 06:58:39;;;;;;;74.03;34.97;;;;;;;;;;5093743;28;20028;-76
2023/12/08 07:01:05;;;;;;;70.35;36.38;;;;;;;;;;5095145;28;20020;-74
2023/12/08 07:03:31;;;;;;;72.05;36.17;;;;;;;;;;5093121;28;20468;-74
2023/12/08 07:05:57;;;;;;;71.65;35.78;;;;;;;;;;5095760;28;20101;-76
2023/12/08 07:08:23;;;;;;;77.07;37.90;;;;;;;;;;5094565;28;20028;-75
2023/12/08 07:10:49;;;;;;;78.68;37.33;;;;;;;;;;5093184;28;20392;-74
2023/12/08 07:13:15;;;;;;;79.60;40.05;;;;;;;;;;5095296;28;20104;-73
2023/12/08 07:15:41;;;;;;;80.45;39.92;;;;;;;;;;5095685;28;20105;-75
2023/12/08 07:18:07;;;;;;;75.63;37.72;;;;;;;;;;5092779;28;20436;-74
2023/12/08 07:20:34;;;;;;;81.97;40.78;;;;;;;;;;5093134;28;20027;-73
2023/12/08 07:23:00;;;;;;;83.53;41.15;;;;;;;;;;5093555;28;20031;-73
2023/12/08 07:25:26;;;;;;;82.70;39.40;;;;;;;;;;5093006;28;20020;-73
2023/12/08 07:27:52;;;;;;;78.78;38.30;;;;;;;;;;5093007;28;20028;-76
2023/12/08 07:30:18;;;;;;;80.88;38.53;;;;;;;;;;5094003;28;20024;-76
2023/12/08 07:32:44;;;;;;;79.07;40.97;;;;;;;;;;5093397;28;20039;-75
2023/12/08 07:35:10;;;;;;;76.50;39.80;;;;;;;;;;5094365;28;20023;-75
2023/12/08 07:37:40;;;;;;;84.53;40.78;;;;;;;;;;5093250;28;20031;-76
2023/12/08 07:40:07;;;;;;;77.13;39.53;;;;;;;;;;5093109;28;20016;-75
2023/12/08 07:42:33;;;;;;;75.20;38.63;;;;;;;;;;5094079;28;20028;-75
2023/12/08 07:44:59;;;;;;;74.32;40.22;;;;;;;;;;5093844;28;20027;-77
2023/12/08 07:47:25;;;;;;;79.85;38.92;;;;;;;;;;5093800;28;20031;-75
2023/12/08 07:49:51;;;;;;;81.32;38.53;;;;;;;;;;5093212;28;20023;-76
2023/12/08 07:52:17;;;;;;;77.80;39.10;;;;;;;;;;5093461;28;20387;-76
2023/12/08 07:54:43;;;;;;;81.78;39.72;;;;;;;;;;5093728;28;20028;-74
2023/12/08 07:57:09;;;;;;;77.18;38.22;;;;;;;;;;5092359;28;20024;-73
2023/12/08 07:59:35;;;;;;;70.63;36.10;;;;;;;;;;5091962;28;20033;-74
2023/12/08 08:02:02;;;;;;;68.65;37.00;;;;;;;;;;5092653;28;20209;-75
2023/12/08 08:04:28;;;;;;;75.53;38.67;;;;;;;;;;5092241;28;20052;-73
2023/12/08 08:06:55;;;;;;;76.55;37.47;;;;;;;;;;5092362;28;20044;-73
2023/12/08 08:09:21;;;;;;;74.47;38.70;;;;;;;;;;5092113;28;20089;-73
2023/12/08 08:11:47;;;;;;;71.05;36.72;;;;;;;;;;5091903;28;20030;-73
2023/12/08 08:14:13;;;;;;;72.45;36.83;;;;;;;;;;5092389;28;20412;-74
2023/12/08 08:16:39;;;;;;;76.63;37.92;;;;;;;;;;5092687;28;20036;-75
2023/12/08 08:19:05;;;;;;;74.07;37.67;;;;;;;;;;5092574;28;20064;-72
2023/12/08 08:21:31;;;;;;;73.90;38.47;;;;;;;;;;5092441;28;20032;-74
2023/12/08 08:23:57;;;;;;;70.88;37.47;;;;;;;;;;5092611;28;20051;-74
2023/12/08 08:26:24;;;;;;;80.40;38.72;;;;;;;;;;5092553;28;20020;-75
2023/12/08 08:28:50;;;;;;;78.03;37.40;;;;;;;;;;5093573;28;20069;-76
2023/12/08 08:31:19;;;;;;;76.63;37.97;;;;;;;;;;5092399;28;20483;-76
2023/12/08 08:33:45;;;;;;;79.57;41.90;;;;;;;;;;5092273;28;20366;-74
2023/12/08 08:36:12;;;;;;;77.45;37.88;;;;;;;;;;5092045;28;20028;-74
2023/12/08 08:38:38;;;;;;;72.70;39.03;;;;;;;;;;5092179;28;20040;-74
2023/12/08 08:41:04;;;;;;;74.55;37.95;;;;;;;;;;5092138;28;20028;-73
2023/12/08 08:43:30;;;;;;;71.05;37.20;;;;;;;;;;5093554;28;20507;-76
2023/12/08 08:45:56;;;;;;;73.85;38.38;;;;;;;;;;5093032;28;20031;-74
2023/12/08 08:48:22;;;;;;;72.10;36.38;;;;;;;;;;5093571;28;20463;-74
2023/12/08 08:50:48;;;;;;;76.00;38.50;;;;;;;;;;5092091;28;20024;-76
2023/12/08 08:53:17;;;;;;;70.85;37.65;;;;;;;;;;5091449;28;20107;-75
2023/12/08 08:55:44;;;;;;;73.50;38.40;;;;;;;;;;5093153;28;20024;-75
2023/12/08 08:58:10;;;;;;;71.47;37.70;;;;;;;;;;5092938;28;20425;-74
2023/12/08 09:00:36;;;;;;;77.38;39.13;;;;;;;;;;5092424;28;20020;-74
2023/12/08 09:03:03;;;;;;;70.68;37.33;;;;;;;;;;5092396;28;20399;-74
2023/12/08 09:05:30;;;;;;;72.63;37.22;;;;;;;;;;5092977;28;20023;-74
2023/12/08 09:07:56;;;;;;;69.45;36.40;;;;;;;;;;5091586;28;20012;-73
2023/12/08 09:10:22;;;;;;;71.03;36.47;;;;;;;;;;5091838;28;20028;-72
2023/12/08 09:12:48;;;;;;;65.88;36.17;;;;;;;;;;5091564;28;20031;-73
2023/12/08 09:15:14;;;;;;;74.55;37.35;;;;;;;;;;5092405;28;20024;-71
2023/12/08 09:17:41;;;;;;;75.47;39.13;;;;;;;;;;5111332;28;20016;-71
2023/12/08 09:20:12;;;;;;;75.72;38.47;;;;;;;;;;5109459;28;20019;-72
2023/12/08 09:22:38;;;;;;;75.50;37.60;;;;;;;;;;5091199;28;20364;-71
2023/12/08 09:25:04;;;;;;;74.63;38.47;;;;;;;;;;5092837;28;20024;-71
2023/12/08 09:27:30;;;;;;;72.03;38.80;;;;;;;;;;5112043;28;20024;-71
2023/12/08 09:29:56;;;;;;;72.13;38.20;;;;;;;;;;5110915;28;20466;-72
2023/12/08 09:32:22;;;;;;;75.20;39.95;;;;;;;;;;5112342;28;20050;-73
2023/12/08 09:34:48;;;;;;;76.90;38.55;;;;;;;;;;5111749;28;20115;-74
2023/12/08 09:37:14;;;;;;;77.15;38.78;;;;;;;;;;5111275;28;20129;-72
2023/12/08 09:39:40;;;;;;;77.72;39.15;;;;;;;;;;5111469;28;20024;-74
2023/12/08 09:42:08;;;;;;;74.75;39.72;;;;;;;;;;5115299;28;20040;-72
2023/12/08 09:44:35;;;;;;;70.57;37.03;;;;;;;;;;5115328;28;20020;-73
2023/12/08 09:47:04;;;;;;;68.45;36.85;;;;;;;;;;5115389;28;20035;-73
2023/12/08 09:49:37;;;;;;;73.15;36.47;;;;;;;;;;5114903;28;20102;-73
2023/12/08 09:52:03;;;;;;;72.75;38.17;;;;;;;;;;5114906;28;20020;-72
2023/12/08 09:54:30;;;;;;;71.68;36.88;;;;;;;;;;5115468;28;20386;-72
2023/12/08 09:56:56;;;;;;;72.63;37.08;;;;;;;;;;5114859;28;20024;-76
2023/12/08 09:59:23;;;;;;;72.70;37.15;;;;;;;;;;5114475;28;20039;-73
2023/12/08 10:01:49;;;;;;;71.90;38.15;;;;;;;;;;5114779;28;20080;-73
2023/12/08 10:04:15;;;;;;;74.45;38.55;;;;;;;;;;5115156;28;20032;-73
2023/12/08 10:06:41;;;;;;;74.35;37.08;;;;;;;;;;5115000;28;20114;-73
2023/12/08 10:09:07;;;;;;;66.15;36.25;;;;;;;;;;5114869;28;20032;-73
2023/12/08 10:11:34;;;;;;;71.55;37.15;;;;;;;;;;5116570;28;20016;-74
2023/12/08 10:14:01;;;;;;;66.40;35.40;;;;;;;;;;5115780;28;20023;-73
2023/12/08 10:16:27;;;;;;;74.50;38.70;;;;;;;;;;5115159;28;20486;-72
2023/12/08 10:19:03;;;;;;;69.13;37.78;;;;;;;;;;5114768;28;20059;-72
2023/12/08 10:21:29;;;;;;;68.78;37.20;;;;;;;;;;5114702;28;20023;-74
2023/12/08 10:24:00;;;;;;;70.03;36.05;;;;;;;;;;5114567;28;20486;-73
2023/12/08 10:26:27;;;;;;;70.90;38.53;;;;;;;;;;5114149;28;20027;-73
2023/12/08 10:28:56;;;;;;;69.25;37.28;;;;;;;;;;5114695;28;20046;-75
2023/12/08 10:31:22;;;;;;;67.72;35.42;;;;;;;;;;5115682;28;20030;-74
2023/12/08 10:33:51;;;;;;;65.32;35.47;;;;;;;;;;5114899;28;20463;-74
2023/12/08 10:36:18;;;;;;;62.65;35.00;;;;;;;;;;5114863;28;20082;-74
2023/12/08 10:38:45;;;;;;;66.60;36.47;;;;;;;;;;5114208;28;20032;-75
2023/12/08 10:41:11;;;;;;;65.60;36.05;;;;;;;;;;5108539;28;20475;-72
2023/12/08 10:43:39;;;;;;;66.25;34.85;;;;;;;;;;5093627;28;20077;-72
2023/12/08 10:46:06;;;;;;;66.40;34.45;;;;;;;;;;5093812;28;20054;-72
2023/12/08 10:48:32;;;;;;;67.20;35.60;;;;;;;;;;5094150;28;20021;-72
2023/12/08 10:50:59;;;;;;;66.68;34.90;;;;;;;;;;5094290;28;20058;-72
2023/12/08 10:53:25;;;;;;;79.05;35.38;;;;;;;;;;5092922;28;20490;-71
2023/12/08 10:56:00;;;;;;;65.63;34.05;;;;;;;;;;5093782;28;20392;-72
2023/12/08 10:58:28;;;;;;;63.75;33.72;;;;;;;;;;5093284;28;20031;-72
2023/12/08 11:00:55;;;;;;;61.88;33.58;;;;;;;;;;5093381;28;20535;-73
2023/12/08 11:03:22;;;;;;;62.67;34.67;;;;;;;;;;5093627;28;20206;-72
2023/12/08 11:06:02;;;;;;;69.53;36.13;;;;;;;;;;5093807;28;20386;-72
2023/12/08 11:08:29;;;;;;;66.28;35.00;;;;;;;;;;5093299;28;20031;-72
2023/12/08 11:10:56;;;;;;;66.72;35.72;;;;;;;;;;5094028;28;20039;-74
2023/12/08 11:13:29;;;;;;;65.65;34.17;;;;;;;;;;5094385;28;20020;-72
2023/12/08 11:16:14;;;;;;;59.10;33.22;;;;;;;;;;5094344;28;20031;-74
2023/12/08 11:18:41;;;;;;;61.40;34.83;;;;;;;;;;5092266;28;20111;-71
2023/12/08 11:21:08;;;;;;;64.50;35.30;;;;;;;;;;5092618;28;20032;-73
2023/12/08 11:23:34;;;;;;;64.70;35.55;;;;;;;;;;5093984;28;20027;-72
2023/12/08 11:26:03;;;;;;;65.13;35.28;;;;;;;;;;5092337;28;20482;-72
2023/12/08 11:28:49;;;;;;;60.72;34.20;;;;;;;;;;5094735;28;20104;-74
2023/12/08 11:31:29;;;;;;;67.28;36.28;;;;;;;;;;5110530;28;20160;-71
2023/12/08 11:34:09;;;;;;;67.90;36.05;;;;;;;;;;5109895;28;20019;-72
2023/12/08 11:36:42;;;;;;;67.00;36.35;;;;;;;;;;5111379;28;20090;-72
2023/12/08 11:39:28;;;;;;;66.35;36.33;;;;;;;;;;5110944;28;20088;-70
2023/12/08 11:41:54;;;;;;;66.57;36.45;;;;;;;;;;5098614;28;20168;-74
2023/12/08 11:44:20;;;;;;;72.30;37.55;;;;;;;;;;5108896;28;20019;-72
2023/12/08 11:46:46;;;;;;;67.72;36.20;;;;;;;;;;5111515;28;20022;-72
2023/12/08 11:49:12;;;;;;;64.47;36.33;;;;;;;;;;5110903;28;20016;-72
2023/12/08 11:51:38;;;;;;;80.68;40.50;;;;;;;;;;5112012;28;20095;-72
2023/12/08 11:54:05;;;;;;;67.25;36.85;;;;;;;;;;5111890;28;20023;-73
2023/12/08 11:56:38;;;;;;;72.72;37.38;;;;;;;;;;5111590;28;20019;-73
2023/12/08 11:59:05;;;;;;;76.40;38.85;;;;;;;;;;5110884;28;20031;-73
2023/12/08 12:01:31;;;;;;;73.80;38.78;;;;;;;;;;5111256;28;20025;-75
2023/12/08 12:03:57;;;;;;;69.97;37.35;;;;;;;;;;5110946;28;20481;-72
2023/12/08 12:06:23;;;;;;;75.28;38.80;;;;;;;;;;5111122;28;20383;-73
2023/12/08 12:08:50;;;;;;;72.15;38.45;;;;;;;;;;5111058;28;20106;-74
2023/12/08 12:11:20;;;;;;;70.55;38.15;;;;;;;;;;5111489;28;20060;-75
2023/12/08 12:13:46;;;;;;;71.57;37.92;;;;;;;;;;5111240;28;20087;-72
2023/12/08 12:16:12;;;;;;;68.38;37.97;;;;;;;;;;5111382;28;20528;-73
2023/12/08 12:18:38;;;;;;;72.55;38.90;;;;;;;;;;5111234;28;20032;-72
2023/12/08 12:21:08;;;;;;;71.78;38.55;;;;;;;;;;5111237;28;20072;-72
2023/12/08 12:23:34;;;;;;;74.00;38.58;;;;;;;;;;5109719;28;20046;-73
2023/12/08 12:26:00;;;;;;;76.25;39.70;;;;;;;;;;5110036;28;20463;-73
2023/12/08 12:28:26;;;;;;;71.63;38.08;;;;;;;;;;5109827;28;20020;-73
2023/12/08 12:30:52;;;;;;;72.28;37.75;;;;;;;;;;5111015;28;20050;-73
2023/12/08 12:33:18;;;;;;;75.82;39.08;;;;;;;;;;5110469;28;20059;-73
2023/12/08 12:35:44;;;;;;;74.20;39.53;;;;;;;;;;5110031;28;20212;-73
2023/12/08 12:38:13;;;;;;;73.22;38.88;;;;;;;;;;5109768;28;20041;-75
2023/12/08 12:40:39;;;;;;;70.47;38.17;;;;;;;;;;5109972;28;20386;-74
2023/12/08 12:43:05;;;;;;;73.63;38.13;;;;;;;;;;5110418;28;20050;-73
2023/12/08 12:45:34;;;;;;;75.40;38.92;;;;;;;;;;5107242;28;20489;-71
2023/12/08 12:48:10;;;;;;;77.45;38.53;;;;;;;;;;5119034;28;20019;-74
2023/12/08 12:50:49;;;;;;;69.90;37.92;;;;;;;;;;5109870;28;20023;-73
2023/12/08 12:53:15;;;;;;;70.18;37.30;;;;;;;;;;5110660;28;20031;-72
2023/12/08 12:55:42;;;;;;;79.75;39.83;;;;;;;;;;5109870;28;20386;-74
2023/12/08 12:58:17;;;;;;;81.68;39.22;;;;;;;;;;5107825;28;20084;-73
2023/12/08 13:00:45;;;;;;;71.05;38.72;;;;;;;;;;5109066;28;20028;-73
2023/12/08 13:03:12;;;;;;;69.10;36.60;;;;;;;;;;5108946;28;20032;-72
2023/12/08 13:05:48;;;;;;;72.00;38.10;;;;;;;;;;5106651;28;20073;-73
2023/12/08 13:08:15;;;;;;;65.82;36.35;;;;;;;;;;5107787;28;20466;-74
2023/12/08 13:10:42;;;;;;;66.72;37.67;;;;;;;;;;5107122;28;20024;-74
2023/12/08 13:13:08;;;;;;;65.45;36.45;;;;;;;;;;5108919;28;20020;-73
2023/12/08 13:15:34;;;;;;;69.65;36.63;;;;;;;;;;5110327;28;20031;-72
2023/12/08 13:18:00;;;;;;;68.05;36.55;;;;;;;;;;5115905;28;20478;-72
2023/12/08 13:20:26;;;;;;;68.18;35.03;;;;;;;;;;5115901;28;20380;-74
2023/12/08 13:22:52;;;;;;;71.30;35.53;;;;;;;;;;5115912;28;20024;-73
2023/12/08 13:25:18;;;;;;;73.07;37.53;;;;;;;;;;5115430;28;20424;-72
2023/12/08 13:27:44;;;;;;;69.53;36.83;;;;;;;;;;5115310;28;20042;-73
2023/12/08 13:30:10;;;;;;;70.68;37.47;;;;;;;;;;5115402;28;20026;-73
2023/12/08 13:32:36;;;;;;;67.72;36.95;;;;;;;;;;5115693;28;20475;-75
2023/12/08 13:35:02;;;;;;;77.07;38.97;;;;;;;;;;5116691;28;20119;-74
2023/12/08 13:37:28;;;;;;;72.53;38.60;;;;;;;;;;5115966;28;20523;-73
2023/12/08 13:39:54;;;;;;;70.38;38.50;;;;;;;;;;5115476;28;20024;-75
2023/12/08 13:42:20;;;;;;;71.75;37.35;;;;;;;;;;5115677;28;20470;-73
2023/12/08 13:44:46;;;;;;;74.68;39.10;;;;;;;;;;5115570;28;20107;-72
2023/12/08 13:47:12;;;;;;;72.00;37.42;;;;;;;;;;5109108;28;20024;-73
2023/12/08 13:49:38;;;;;;;73.70;38.88;;;;;;;;;;5107082;28;20102;-72
2023/12/08 13:52:04;;;;;;;69.68;38.42;;;;;;;;;;5107146;28;20391;-72
2023/12/08 13:54:31;;;;;;;73.60;38.95;;;;;;;;;;5103039;28;20047;-71
2023/12/08 13:56:57;;;;;;;74.10;38.42;;;;;;;;;;5100154;28;20429;-73
2023/12/08 13:59:23;;;;;;;76.03;39.25;;;;;;;;;;5104389;28;20042;-72
2023/12/08 14:01:49;;;;;;;74.78;38.20;;;;;;;;;;5106330;28;20028;-73
2023/12/08 14:04:15;;;;;;;68.07;36.40;;;;;;;;;;5111635;28;20426;-72
2023/12/08 14:06:41;;;;;;;77.55;38.05;;;;;;;;;;5100514;28;20024;-72
2023/12/08 14:09:09;;;;;;;71.28;38.28;;;;;;;;;;5101224;28;20069;-71
2023/12/08 14:11:35;;;;;;;71.68;37.17;;;;;;;;;;5102692;28;20111;-72
2023/12/08 14:14:02;;;;;;;67.30;37.30;;;;;;;;;;5111653;28;20116;-72